Estación Meteorológica Peña el Pijo (Robertgarden) [ 12/09/19 16:24:02 CET ]

Fecha Hora Presion(HPa) Temp (°C) Humedad % Rocio (°C) Viento ( m/s) Direccion Lluvia 1Hora(mm) Lluvia 24H(mm) LLuvia Total(mm)
2019-Nov-26 01:01:41 1006.200 11.1 74 6.6         37.81
2019-Nov-26 02:01:48 1006.000 10.7 75 6.4 3.2 NNW     37.81
2019-Nov-26 03:07:02 1005.900 9.5 76 5.4         37.81
2019-Nov-26 04:01:42 1005.900 7.8 79 4.4         37.81
2019-Nov-26 05:01:49 1005.500 6.7 82 3.8         37.81
2019-Nov-26 06:01:58 1005.500 6.3 83 3.6         37.81
2019-Nov-26 07:01:40 1005.200 7.3 84 4.8         37.81
2019-Nov-26 08:01:35 1005.500 7.9 83 5.2         37.81
2019-Nov-26 09:02:00 1005.500 9.3 80 6.0         37.81
2019-Nov-26 10:01:51 1006.300 12.8 68 7.0         37.81
2019-Nov-26 11:01:40 1006.500 14.9 63 7.9         37.81
2019-Nov-26 12:01:38 1005.600 16.3 62 9.0 3.6 NW     37.81
2019-Nov-26 13:01:49 1004.900 17.8 59 9.6 0.5 NNE     37.81
2019-Nov-26 14:01:50 1004.100 18.3 58 9.9 0.7 SSE     37.81
2019-Nov-26 15:01:44 1004.100 14.9 67 8.8 1.8 WNW     37.81
2019-Nov-26 16:01:47 1003.600 14.9 67 8.8         37.81
2019-Nov-26 17:01:50 1003.200 13.8 70 8.4 1.5 N     37.81
2019-Nov-26 18:01:48 1003.500 12.8 72 7.9 2.4 ENE     37.81
2019-Nov-26 19:01:48 1003.000 12.4 73 7.7         37.81
2019-Nov-26 20:01:39 1003.500 11.6 75 7.3         37.81
2019-Nov-26 21:02:02 1003.500 11.3 75 7.0         37.81
2019-Nov-26 22:01:49 1003.400 10.6 76 6.5         37.81
2019-Nov-26 23:01:55 1002.900 10.8 75 6.5 1.3 N     37.81

Temperatura Máxima:18°    Temperatura Mínima:
Presión Máxima:1006.500 Hpa    Presión Mínima:1002.900 Hpa


Volver